Time;durP1;ratioP1;P1;durP2;ratioP2;P2;SDS_P1;SDS_P2;PMS_P1;PMS_P2;Temp;Humidity;BMP_temperature;BMP_pressure;BME280_temperature;BME280_humidity;BME280_pressure;Samples;Min_cycle;Max_cycle;Signal;HPM_P1;HPM_P2
2023/10/19 05:59:33;;;;;;;10.90;7.90;;;;;;;16.53;50.87;97537.26;104931;1265;61284;-39
2023/10/19 06:02:00;;;;;;;15.10;8.90;;;;;;;16.53;50.76;97534.23;105111;1261;74449;-40
2023/10/19 06:04:27;;;;;;;17.70;8.90;;;;;;;16.52;50.68;97534.76;104929;1265;66170;-40
2023/10/19 06:06:53;;;;;;;12.30;8.90;;;;;;;16.53;50.69;97534.84;105557;1261;72630;-42
2023/10/19 06:09:27;;;;;;;14.40;8.90;;;;;;;16.53;50.73;97533.92;105955;1265;61243;-39
2023/10/19 06:11:54;;;;;;;14.10;9.20;;;;;;;16.52;50.84;97535.01;104980;1263;61318;-39
2023/10/19 06:14:20;;;;;;;13.90;8.70;;;;;;;16.53;50.93;97535.40;105012;1262;75019;-39
2023/10/19 06:16:47;;;;;;;19.50;9.20;;;;;;;16.53;50.96;97533.09;104811;1265;66269;-38
2023/10/19 06:19:16;;;;;;;17.10;9.20;;;;;;;16.53;51.08;97531.61;104934;1265;73335;-38
2023/10/19 06:21:43;;;;;;;13.60;8.70;;;;;;;16.54;51.13;97529.70;106195;1264;61290;-40
2023/10/19 06:24:14;;;;;;;17.00;9.10;;;;;;;16.54;51.14;97529.70;105051;1268;61270;-41
2023/10/19 06:26:43;;;;;;;19.20;9.60;;;;;;;16.54;51.23;97533.88;104854;1269;74933;-37
2023/10/19 06:29:10;;;;;;;15.60;9.60;;;;;;;16.54;51.28;97530.88;105033;1265;66193;-35
2023/10/19 06:31:37;;;;;;;16.20;10.00;;;;;;;16.54;51.18;97531.32;105225;1265;73404;-38
2023/10/19 06:34:05;;;;;;;18.20;9.50;;;;;;;16.55;51.15;97529.28;106092;1265;61386;-39
2023/10/19 06:36:33;;;;;;;22.10;10.00;;;;;;;16.54;51.19;97528.55;105604;1267;61213;-39
2023/10/19 06:39:06;;;;;;;17.90;9.70;;;;;;;16.54;51.35;97527.40;105240;1268;73247;-39
2023/10/19 06:41:32;;;;;;;18.40;10.10;;;;;;;16.55;51.49;97521.71;105196;1265;66103;-40
2023/10/19 06:43:59;;;;;;;16.10;10.10;;;;;;;16.56;51.61;97526.54;105071;1265;73855;-40
2023/10/19 06:46:27;;;;;;;15.70;9.30;;;;;;;16.57;51.72;97517.52;104938;1265;61287;-42
2023/10/19 06:48:56;;;;;;;19.40;9.90;;;;;;;16.56;51.77;97517.41;104938;1263;61610;-40
2023/10/19 07:01:08;;;;;;;16.00;9.10;;;;;;;16.64;53.44;97507.10;104091;1279;73131;-38
2023/10/19 07:03:35;;;;;;;24.60;9.60;;;;;;;16.68;53.72;97506.60;103510;1282;61404;-39
2023/10/19 07:06:03;;;;;;;13.10;9.00;;;;;;;16.72;53.88;97504.17;103369;1280;61391;-40
2023/10/19 07:08:35;;;;;;;19.60;9.60;;;;;;;16.79;54.57;97503.44;103520;1282;75076;-39
2023/10/19 07:11:03;;;;;;;16.50;9.80;;;;;;;16.87;54.91;97501.34;103540;1285;66189;-37
2023/10/19 07:13:32;;;;;;;14.20;9.10;;;;;;;16.94;55.40;97501.93;103495;1280;72455;-37
2023/10/19 07:15:59;;;;;;;27.40;9.30;;;;;;;17.00;55.68;97504.77;103733;1290;61288;-40
2023/10/19 07:18:29;;;;;;;16.30;8.90;;;;;;;17.06;55.83;97501.77;103754;1280;61388;-38
2023/10/19 07:21:09;;;;;;;11.60;8.70;;;;;;;17.11;55.79;97499.89;103587;1284;75034;-37
2023/10/19 07:23:49;;;;;;;13.30;8.70;;;;;;;17.17;55.90;97497.02;103527;1285;66346;-38
2023/10/19 07:26:15;;;;;;;13.10;9.20;;;;;;;17.19;55.93;97496.63;103500;1286;72683;-37
2023/10/19 07:28:42;;;;;;;12.70;8.40;;;;;;;17.21;55.78;97501.19;103453;1283;61374;-38
2023/10/19 07:31:15;;;;;;;12.40;8.70;;;;;;;17.25;55.83;97499.88;103850;1282;61332;-39
2023/10/19 07:33:49;;;;;;;16.90;8.70;;;;;;;17.26;55.75;97495.91;103585;1282;74453;-38
2023/10/19 07:36:18;;;;;;;12.50;8.10;;;;;;;17.28;55.84;97493.11;103520;1283;66146;-38
2023/10/19 07:38:47;;;;;;;13.20;8.50;;;;;;;17.30;55.67;97489.82;103559;1284;72814;-39
2023/10/19 07:41:15;;;;;;;13.20;8.70;;;;;;;17.32;55.74;97484.69;103596;1280;61163;-37
2023/10/19 07:43:46;;;;;;;13.50;7.90;;;;;;;17.34;55.70;97483.96;104338;1286;61304;-39
2023/10/19 07:46:14;;;;;;;15.50;8.10;;;;;;;17.36;55.48;97487.81;103579;1286;75646;-40
2023/10/19 07:48:41;;;;;;;9.50;7.80;;;;;;;17.37;55.52;97487.38;103493;1286;67062;-37
2023/10/19 07:51:11;;;;;;;8.70;7.30;;;;;;;17.39;55.54;97486.51;103282;1280;72531;-39
2023/10/19 07:53:37;;;;;;;10.90;7.30;;;;;;;17.41;55.57;97484.41;103312;1285;62823;-39
2023/10/19 07:56:04;;;;;;;11.30;7.80;;;;;;;17.43;55.49;97482.67;103230;1285;61170;-39
2023/10/19 07:58:33;;;;;;;13.40;7.50;;;;;;;17.46;55.60;97473.08;103053;1280;73337;-39
2023/10/19 08:01:02;;;;;;;9.90;7.00;;;;;;;17.47;55.51;97469.19;104803;1284;68301;-41
2023/10/19 08:03:29;;;;;;;10.50;7.20;;;;;;;17.50;55.55;97461.83;103407;1284;73509;-40
2023/10/19 08:05:56;;;;;;;10.40;7.60;;;;;;;17.52;55.55;97458.42;103307;1285;61160;-42
2023/10/19 08:08:24;;;;;;;10.70;7.80;;;;;;;17.54;55.58;97457.40;103447;1286;61378;-39
2023/10/19 08:10:51;;;;;;;9.80;7.30;;;;;;;17.56;55.54;97458.00;103551;1280;74581;-40
2023/10/19 08:13:18;;;;;;;12.00;7.70;;;;;;;17.58;55.59;97456.81;103538;1285;66125;-38
2023/10/19 08:15:44;;;;;;;8.90;7.60;;;;;;;17.59;55.64;97459.23;103335;1285;72641;-38
2023/10/19 08:18:12;;;;;;;14.20;7.50;;;;;;;17.61;55.57;97462.68;103220;1285;61292;-37
2023/10/19 08:20:39;;;;;;;8.10;6.80;;;;;;;17.63;55.44;97466.06;103639;1283;61333;-38
2023/10/19 08:23:06;;;;;;;10.40;7.00;;;;;;;17.64;55.28;97466.86;103332;1286;74668;-39
2023/10/19 08:25:34;;;;;;;10.40;7.10;;;;;;;17.64;55.40;97469.11;103377;1286;66031;-39
2023/10/19 08:28:22;;;;;;;12.00;7.40;;;;;;;17.65;55.26;97463.24;104495;1280;71217;-42
2023/10/19 08:30:57;;;;;;;8.60;6.70;;;;;;;17.65;55.21;97460.09;103532;1285;61302;-37
2023/10/19 08:33:29;;;;;;;9.30;6.80;;;;;;;17.66;55.08;97455.84;103558;1282;61400;-38
2023/10/19 08:35:56;;;;;;;13.30;6.90;;;;;;;17.66;55.13;97451.60;103386;1296;73688;-38
2023/10/19 08:38:23;;;;;;;10.40;6.90;;;;;;;17.66;55.06;97452.44;103383;1285;68188;-39
2023/10/19 08:40:50;;;;;;;9.20;6.60;;;;;;;17.66;54.77;97451.36;103496;1285;72430;-38
2023/10/19 08:43:21;;;;;;;12.90;7.60;;;;;;;17.67;54.83;97445.96;105406;1285;61302;-38
2023/10/19 08:45:49;;;;;;;8.70;6.60;;;;;;;17.68;54.81;97442.45;103502;1285;61394;-40
2023/10/19 08:48:16;;;;;;;10.60;7.40;;;;;;;17.69;54.52;97439.27;103108;1285;170124;-37
2023/10/19 08:50:43;;;;;;;9.10;6.70;;;;;;;17.69;54.59;97436.35;103297;1284;67191;-37
2023/10/19 08:53:10;;;;;;;13.80;6.70;;;;;;;17.70;54.59;97439.31;103217;1286;73278;-46
2023/10/19 08:55:37;;;;;;;10.90;6.70;;;;;;;17.70;54.42;97440.94;103590;1285;61336;-45
2023/10/19 08:58:07;;;;;;;12.30;7.00;;;;;;;17.71;54.44;97439.34;103481;1280;61493;-40
2023/10/19 09:00:46;;;;;;;10.40;6.40;;;;;;;17.76;54.87;97431.58;103440;1288;75713;-39
2023/10/19 09:03:16;;;;;;;8.10;6.20;;;;;;;17.82;55.27;97426.60;103466;1286;67125;-42
2023/10/19 09:05:45;;;;;;;10.30;7.30;;;;;;;17.88;55.13;97420.85;103591;1282;72580;-38
2023/10/19 09:08:19;;;;;;;8.20;6.30;;;;;;;17.93;55.11;97418.80;103428;1281;61288;-40
2023/10/19 09:10:48;;;;;;;15.30;6.70;;;;;;;17.96;54.98;97413.77;103516;1286;61306;-39
2023/10/19 09:13:22;;;;;;;12.00;6.50;;;;;;;17.99;55.03;97415.25;103448;1288;74528;-39
2023/10/19 09:15:49;;;;;;;11.40;6.70;;;;;;;18.02;54.87;97406.87;103405;1286;64988;-38
2023/10/19 09:18:23;;;;;;;8.20;6.20;;;;;;;18.05;54.76;97404.92;103356;1285;72635;-39
2023/10/19 09:20:55;;;;;;;10.30;6.90;;;;;;;18.06;54.73;97396.13;103437;1282;61289;-41
2023/10/19 09:23:25;;;;;;;7.40;6.40;;;;;;;18.08;54.59;97393.70;103316;1282;61349;-40
2023/10/19 09:25:54;;;;;;;8.70;6.00;;;;;;;18.09;54.65;97392.95;103309;1285;75445;-41
2023/10/19 09:28:24;;;;;;;9.50;6.30;;;;;;;18.10;54.88;97390.41;103513;1286;66109;-41
2023/10/19 09:30:51;;;;;;;9.30;6.10;;;;;;;18.10;54.99;97390.02;103361;1280;73494;-40
2023/10/19 09:33:21;;;;;;;9.40;6.70;;;;;;;18.10;55.06;97385.23;103456;1293;61387;-44
2023/10/19 09:35:48;;;;;;;9.20;6.20;;;;;;;18.11;55.03;97380.05;103437;1293;61644;-40
2023/10/19 09:38:16;;;;;;;7.70;6.20;;;;;;;18.11;55.17;97377.59;103452;1283;75381;-41
2023/10/19 09:40:42;;;;;;;7.40;6.20;;;;;;;18.12;55.15;97369.23;103629;1283;67154;-41
2023/10/19 09:43:15;;;;;;;12.10;6.50;;;;;;;18.12;55.18;97362.50;103348;1280;73777;-40
2023/10/19 09:45:42;;;;;;;8.20;6.10;;;;;;;18.11;55.23;97355.98;103472;1280;61333;-42
2023/10/19 09:48:16;;;;;;;10.80;6.20;;;;;;;18.11;55.17;97351.96;103632;1282;61333;-40
2023/10/19 09:50:54;;;;;;;12.00;7.00;;;;;;;18.11;55.20;97346.06;104031;1285;75550;-43
2023/10/19 09:53:31;;;;;;;8.60;6.20;;;;;;;18.11;55.19;97344.98;103404;1283;66300;-42
2023/10/19 09:55:58;;;;;;;9.60;5.70;;;;;;;18.11;55.35;97338.87;103372;1285;72664;-43
2023/10/19 09:58:31;;;;;;;8.80;6.20;;;;;;;18.11;55.41;97334.06;107135;1279;60269;-43
2023/10/19 10:00:58;;;;;;;7.20;5.70;;;;;;;18.11;55.45;97329.04;103498;1283;61498;-42
2023/10/19 10:03:47;;;;;;;6.80;5.50;;;;;;;18.11;55.40;97329.73;103328;1281;74628;-42
2023/10/19 10:06:16;;;;;;;9.90;5.80;;;;;;;18.12;55.37;97318.29;103437;1284;67312;-41
2023/10/19 10:08:43;;;;;;;6.90;5.50;;;;;;;18.11;55.29;97308.91;103236;1285;73506;-40
2023/10/19 10:11:16;;;;;;;11.90;5.70;;;;;;;18.11;55.22;97301.39;106359;1280;60562;-40
2023/10/19 10:13:45;;;;;;;6.50;5.40;;;;;;;18.10;55.21;97297.73;107016;1280;61356;-41
2023/10/19 10:16:17;;;;;;;7.70;5.80;;;;;;;18.09;55.28;97302.67;105302;1280;74681;-40
2023/10/19 10:18:45;;;;;;;7.80;5.30;;;;;;;18.08;55.09;97299.79;107079;1280;66219;-42
2023/10/19 10:21:24;;;;;;;8.20;5.50;;;;;;;18.07;55.27;97296.58;107041;1280;72617;-42
2023/10/19 10:23:56;;;;;;;7.60;5.60;;;;;;;18.06;55.09;97288.90;103826;1280;61215;-41
2023/10/19 10:26:24;;;;;;;7.30;5.60;;;;;;;18.05;55.07;97279.97;104619;1281;61259;-41
2023/10/19 10:29:19;;;;;;;7.80;5.40;;;;;;;18.05;55.24;97270.91;103226;1280;75641;-44
2023/10/19 10:31:47;;;;;;;8.10;5.70;;;;;;;18.06;55.00;97266.21;103483;1280;67092;-42
2023/10/19 10:34:33;;;;;;;9.50;5.30;;;;;;;18.06;55.12;97273.34;103484;1286;73571;-41
2023/10/19 10:37:05;;;;;;;9.20;5.80;;;;;;;18.07;55.09;97269.39;103542;1293;61304;-40
2023/10/19 10:39:32;;;;;;;6.20;4.90;;;;;;;18.07;54.98;97267.33;103343;1293;61282;-40
2023/10/19 10:41:59;;;;;;;6.40;5.00;;;;;;;18.08;54.95;97266.09;103432;1283;75554;-43
2023/10/19 10:44:39;;;;;;;6.80;5.10;;;;;;;18.08;55.03;97268.35;103601;1286;66969;-43
2023/10/19 10:47:29;;;;;;;6.20;4.60;;;;;;;18.08;55.05;97256.75;103629;1286;73324;-43
2023/10/19 10:49:57;;;;;;;6.60;5.00;;;;;;;18.09;55.08;97245.38;103464;1286;61385;-40
2023/10/19 10:52:25;;;;;;;5.80;5.00;;;;;;;18.10;54.94;97229.13;103497;1280;61390;-40
2023/10/19 10:54:53;;;;;;;9.60;5.40;;;;;;;18.09;54.89;97213.25;103281;1280;72816;-42
2023/10/19 10:57:20;;;;;;;9.40;5.40;;;;;;;18.11;54.82;97201.05;103566;1283;65962;-42
2023/10/19 10:59:47;;;;;;;7.20;5.20;;;;;;;18.12;54.84;97193.63;103538;1282;73461;-40
2023/10/19 11:02:21;;;;;;;6.40;4.80;;;;;;;18.12;55.11;97190.01;103387;1285;61185;-41
2023/10/19 11:04:48;;;;;;;8.20;5.20;;;;;;;18.13;55.32;97195.21;103449;1283;61576;-41
2023/10/19 11:07:18;;;;;;;5.60;4.40;;;;;;;18.13;55.38;97188.48;103490;1285;75413;-42
2023/10/19 11:09:46;;;;;;;5.90;4.60;;;;;;;18.14;55.44;97183.14;103374;1286;66649;-42
2023/10/19 11:12:13;;;;;;;7.30;4.90;;;;;;;18.15;55.42;97178.38;103495;1282;72674;-41
2023/10/19 11:15:00;;;;;;;5.40;4.80;;;;;;;18.17;55.45;97175.07;103746;1280;61288;-41
2023/10/19 11:17:31;;;;;;;5.60;4.80;;;;;;;18.18;55.35;97166.73;103623;1280;61397;-42
2023/10/19 11:19:58;;;;;;;5.10;4.30;;;;;;;18.19;55.42;97163.56;103293;1286;75247;-44
2023/10/19 11:22:26;;;;;;;7.60;4.80;;;;;;;18.20;55.56;97157.33;103470;1285;66071;-44
2023/10/19 11:24:54;;;;;;;6.90;5.20;;;;;;;18.20;55.67;97150.28;103448;1286;72462;-43
2023/10/19 11:27:27;;;;;;;7.90;4.90;;;;;;;18.22;55.71;97147.44;103548;1283;61298;-45
2023/10/19 11:30:27;;;;;;;8.60;5.20;;;;;;;18.24;55.87;97148.80;103502;1286;61378;-44
2023/10/19 11:32:57;;;;;;;9.50;4.90;;;;;;;18.26;55.96;97148.21;103371;1285;75861;-45
2023/10/19 11:35:25;;;;;;;7.90;5.10;;;;;;;18.28;56.00;97152.51;105272;1280;68526;-42
2023/10/19 11:37:54;;;;;;;7.80;5.40;;;;;;;18.29;55.96;97155.17;103419;1280;72427;-43
2023/10/19 11:40:21;;;;;;;7.90;4.60;;;;;;;18.31;55.90;97157.05;103052;1286;61752;-42
2023/10/19 11:42:52;;;;;;;9.00;4.50;;;;;;;18.32;55.85;97147.08;104611;1285;61180;-42
2023/10/19 11:45:18;;;;;;;7.70;4.90;;;;;;;18.32;55.86;97139.58;103373;1280;77293;-42
2023/10/19 11:47:50;;;;;;;7.80;4.70;;;;;;;18.32;55.86;97133.54;103382;1280;66637;-42
2023/10/19 11:50:19;;;;;;;7.10;4.50;;;;;;;18.33;55.79;97132.55;103314;1280;72783;-42
2023/10/19 11:52:45;;;;;;;11.00;4.60;;;;;;;18.34;55.77;97129.00;103395;1280;61928;-43
2023/10/19 11:55:13;;;;;;;7.90;4.80;;;;;;;18.34;55.71;97124.36;103241;1280;61183;-42
2023/10/19 11:57:43;;;;;;;7.60;4.50;;;;;;;18.34;55.72;97125.99;105218;1280;76990;-43
2023/10/19 12:00:21;;;;;;;7.50;5.00;;;;;;;18.35;55.65;97122.50;104727;1280;64900;-44
2023/10/19 12:02:48;;;;;;;11.30;4.40;;;;;;;18.34;55.45;97118.46;104183;1284;73339;-41
2023/10/19 12:05:15;;;;;;;7.50;5.20;;;;;;;18.36;55.28;97115.77;103407;1284;61296;-43
2023/10/19 12:07:45;;;;;;;6.40;4.80;;;;;;;18.36;55.13;97118.66;105497;1282;61401;-42
2023/10/19 12:10:14;;;;;;;9.40;4.60;;;;;;;18.37;55.23;97107.30;103234;1285;74348;-41
2023/10/19 12:12:41;;;;;;;7.40;4.70;;;;;;;18.38;55.26;97105.77;103262;1284;67363;-42
2023/10/19 12:15:27;;;;;;;;;;;;;;;18.39;55.19;97107.48;103432;1280;73559;-44
2023/10/19 12:17:54;;;;;;;6.80;4.00;;;;;;;18.39;55.24;97098.35;103450;1285;61253;-44
2023/10/19 12:20:24;;;;;;;6.90;4.80;;;;;;;18.39;55.31;97090.14;103327;1284;61289;-41
2023/10/19 12:22:56;;;;;;;5.40;4.40;;;;;;;18.40;55.31;97084.73;103320;1285;75039;-44
2023/10/19 12:25:28;;;;;;;6.70;4.80;;;;;;;18.39;55.13;97068.91;103888;1285;66333;-45
2023/10/19 12:28:04;;;;;;;7.40;4.30;;;;;;;18.40;55.25;97062.73;103451;1285;71556;-42
2023/10/19 12:30:36;;;;;;;10.10;4.80;;;;;;;18.41;55.21;97058.10;103814;1282;61365;-40
2023/10/19 12:33:07;;;;;;;8.80;4.60;;;;;;;18.41;55.23;97061.27;103418;1286;61279;-42
2023/10/19 12:35:59;;;;;;;5.70;4.40;;;;;;;18.41;55.18;97067.16;103551;1285;74776;-41
2023/10/19 12:38:27;;;;;;;6.30;4.80;;;;;;;18.40;55.21;97066.82;103400;1285;65987;-44
2023/10/19 12:40:54;;;;;;;5.80;4.10;;;;;;;18.38;55.25;97063.94;104245;1284;72490;-41
2023/10/19 12:43:25;;;;;;;6.10;4.40;;;;;;;18.38;55.27;97065.40;103588;1279;61740;-43
2023/10/19 12:45:57;;;;;;;4.70;4.20;;;;;;;18.36;55.30;97059.95;103561;1279;61380;-44
2023/10/19 12:48:33;;;;;;;5.20;4.30;;;;;;;18.35;55.21;97055.73;103524;1283;73565;-42
2023/10/19 12:51:01;;;;;;;8.70;3.70;;;;;;;18.33;55.28;97055.41;103264;1287;67152;-44
2023/10/19 12:53:28;;;;;;;6.20;3.90;;;;;;;18.31;55.25;97050.97;103289;1279;72672;-41
2023/10/19 12:55:56;;;;;;;4.40;4.00;;;;;;;18.30;55.15;97045.61;103476;1280;61432;-44
2023/10/19 12:58:23;;;;;;;6.50;4.70;;;;;;;18.30;55.17;97042.88;103414;1280;61282;-43
2023/10/19 13:00:50;;;;;;;7.40;4.00;;;;;;;18.29;55.17;97034.49;103328;1280;73419;-49
2023/10/19 13:03:18;;;;;;;7.20;4.20;;;;;;;18.28;55.22;97025.80;103439;1286;67377;-48
2023/10/19 13:05:46;;;;;;;6.50;4.40;;;;;;;18.28;55.18;97029.30;103483;1280;73598;-44
2023/10/19 13:08:15;;;;;;;6.10;4.20;;;;;;;18.29;55.06;97023.52;103452;1286;61397;-49
2023/10/19 13:10:43;;;;;;;5.50;4.20;;;;;;;18.30;54.99;97021.20;103374;1283;61349;-46
2023/10/19 13:13:11;;;;;;;6.60;4.10;;;;;;;18.30;54.98;97015.70;103501;1282;75141;-45
2023/10/19 13:15:39;;;;;;;8.50;3.90;;;;;;;18.30;55.21;97012.08;103253;1280;67181;-45
2023/10/19 13:18:09;;;;;;;6.90;3.90;;;;;;;18.31;55.14;97006.34;103464;1285;72012;-47
2023/10/19 13:20:43;;;;;;;6.50;4.00;;;;;;;18.30;55.15;97010.23;103641;1282;61356;-44
2023/10/19 13:23:15;;;;;;;10.30;4.40;;;;;;;18.31;55.05;97021.36;103278;1286;61284;-48
2023/10/19 13:26:01;;;;;;;6.70;4.00;;;;;;;18.30;55.09;97024.45;103555;1285;74711;-45
2023/10/19 13:28:28;;;;;;;4.60;4.20;;;;;;;18.30;55.09;97020.36;103545;1282;65948;-49
2023/10/19 13:30:55;;;;;;;9.10;3.90;;;;;;;18.30;55.06;97016.86;103413;1280;73574;-47
2023/10/19 13:33:21;;;;;;;6.00;3.70;;;;;;;18.30;55.09;97014.78;103379;1282;61825;-47
2023/10/19 13:35:48;;;;;;;6.20;4.40;;;;;;;18.29;55.11;97010.98;103346;1283;61234;-44
2023/10/19 13:38:17;;;;;;;5.60;3.80;;;;;;;18.29;54.98;97013.59;103312;1282;74905;-43
2023/10/19 13:40:46;;;;;;;8.20;4.40;;;;;;;18.29;55.30;97011.20;103295;1286;67131;-42
2023/10/19 13:43:13;;;;;;;7.10;4.30;;;;;;;18.28;55.27;96999.80;103483;1280;73806;-41
2023/10/19 13:45:41;;;;;;;5.40;4.00;;;;;;;18.27;54.89;96991.33;103717;1282;61282;-41
2023/10/19 13:48:09;;;;;;;5.80;4.50;;;;;;;18.25;54.58;96992.85;103515;1282;61672;-42
2023/10/19 13:50:42;;;;;;;8.40;4.70;;;;;;;18.22;54.58;96987.31;103482;1282;74470;-43
2023/10/19 13:53:12;;;;;;;7.30;4.50;;;;;;;18.18;54.50;96981.05;103286;1285;67442;-42
2023/10/19 13:55:39;;;;;;;7.10;4.10;;;;;;;18.16;54.50;96971.66;103204;1282;72444;-42
2023/10/19 13:58:09;;;;;;;6.60;4.50;;;;;;;18.15;54.36;96975.34;103984;1283;61358;-44
2023/10/19 14:00:40;;;;;;;6.10;4.40;;;;;;;18.12;54.45;96969.96;103670;1280;61275;-44
2023/10/19 14:03:07;;;;;;;5.50;4.20;;;;;;;18.10;54.35;96970.41;103415;1283;75562;-42
2023/10/19 14:05:43;;;;;;;6.70;4.20;;;;;;;18.09;54.33;96961.48;103278;1285;67021;-43
2023/10/19 14:08:09;;;;;;;;;;;;;;;18.07;54.14;96948.04;105806;1279;73566;-42
2023/10/19 14:10:36;;;;;;;5.80;4.60;;;;;;;18.05;54.25;96948.09;104946;1280;61320;-42
2023/10/19 14:13:05;;;;;;;9.70;4.70;;;;;;;18.02;54.17;96949.98;103619;1279;61396;-42
2023/10/19 14:15:33;;;;;;;8.90;5.10;;;;;;;18.00;54.08;96940.98;103986;1282;75820;-43
2023/10/19 14:18:00;;;;;;;8.30;4.60;;;;;;;17.98;54.19;96928.32;103540;1285;66000;-44
2023/10/19 14:20:33;;;;;;;7.40;5.00;;;;;;;17.96;54.19;96929.21;104743;1279;72465;-43
2023/10/19 14:23:01;;;;;;;8.60;4.50;;;;;;;17.95;54.21;96927.25;103247;1285;61289;-43
2023/10/19 14:25:28;;;;;;;7.30;4.80;;;;;;;17.93;54.19;96927.77;103831;1284;61394;-43
2023/10/19 14:27:58;;;;;;;8.80;4.80;;;;;;;17.91;54.14;96922.70;103376;1285;75595;-43
2023/10/19 14:30:27;;;;;;;6.70;4.40;;;;;;;17.89;54.22;96920.43;103918;1283;66963;-42
2023/10/19 14:32:54;;;;;;;6.80;4.20;;;;;;;17.86;54.21;96918.45;103691;1280;73577;-43
2023/10/19 14:35:22;;;;;;;9.30;4.90;;;;;;;17.85;54.27;96919.06;103904;1285;61403;-43
2023/10/19 14:37:51;;;;;;;5.60;4.60;;;;;;;17.84;54.15;96920.66;103620;1280;61349;-43
2023/10/19 14:40:24;;;;;;;6.00;4.10;;;;;;;17.82;54.22;96915.23;104677;1279;74470;-43
2023/10/19 14:42:54;;;;;;;7.30;4.30;;;;;;;17.81;54.22;96916.89;103690;1284;66418;-43
2023/10/19 14:45:28;;;;;;;8.10;4.60;;;;;;;17.79;54.29;96925.16;103345;1279;71688;-43
2023/10/19 14:47:55;;;;;;;8.20;4.60;;;;;;;17.77;54.31;96924.73;103529;1282;61230;-43
2023/10/19 14:50:22;;;;;;;6.00;4.40;;;;;;;17.75;54.35;96920.22;103830;1280;61422;-43
2023/10/19 14:52:51;;;;;;;5.90;4.40;;;;;;;17.73;54.37;96918.33;103837;1280;75524;-43
2023/10/19 14:55:18;;;;;;;5.40;4.20;;;;;;;17.72;54.37;96914.44;103504;1282;66400;-42
2023/10/19 14:57:48;;;;;;;4.80;3.90;;;;;;;17.71;54.28;96914.19;103465;1279;73654;-43
2023/10/19 15:00:25;;;;;;;6.60;4.30;;;;;;;17.71;54.33;96913.95;104204;1280;61381;-43
2023/10/19 15:02:55;;;;;;;5.60;4.30;;;;;;;17.68;54.42;96908.34;103686;1280;61403;-43
2023/10/19 15:05:29;;;;;;;6.80;4.40;;;;;;;17.67;54.39;96905.77;104153;1280;74496;-42
2023/10/19 15:07:55;;;;;;;5.30;4.20;;;;;;;17.66;54.47;96903.18;103573;1284;63903;-42
2023/10/19 15:10:24;;;;;;;6.00;4.00;;;;;;;17.64;54.46;96898.75;103884;1282;72714;-44
2023/10/19 15:13:01;;;;;;;5.90;3.80;;;;;;;17.62;54.47;96894.94;103487;1279;61352;-44
2023/10/19 15:15:32;;;;;;;7.30;4.40;;;;;;;17.62;54.55;96897.33;103558;1288;61395;-43
2023/10/19 15:18:14;;;;;;;4.70;3.70;;;;;;;17.61;54.48;96900.86;103427;1280;73456;-44
2023/10/19 15:20:42;;;;;;;5.40;4.00;;;;;;;17.59;54.48;96903.39;103442;1280;64333;-43
2023/10/19 15:23:09;;;;;;;7.20;4.30;;;;;;;17.58;54.54;96909.23;103339;1279;73804;-43
2023/10/19 15:25:40;;;;;;;5.00;3.90;;;;;;;17.56;54.39;96910.92;103641;1285;61309;-44
2023/10/19 15:28:08;;;;;;;5.00;4.20;;;;;;;17.54;54.56;96910.48;103470;1280;61393;-43
2023/10/19 15:30:34;;;;;;;4.30;3.90;;;;;;;17.53;54.47;96911.26;104359;1280;74662;-44
2023/10/19 15:33:02;;;;;;;5.00;4.20;;;;;;;17.52;54.46;96905.58;103786;1285;66591;-44
2023/10/19 15:35:29;;;;;;;4.60;3.90;;;;;;;17.51;54.51;96900.70;103832;1280;72367;-43
2023/10/19 15:37:56;;;;;;;5.30;3.80;;;;;;;17.49;54.56;96900.41;103647;1286;61858;-45
2023/10/19 15:40:24;;;;;;;5.80;3.90;;;;;;;17.49;54.60;96901.41;104077;1280;61321;-43
2023/10/19 15:42:53;;;;;;;4.10;3.70;;;;;;;17.48;54.58;96900.77;103486;1285;75532;-43
2023/10/19 15:45:20;;;;;;;6.60;3.70;;;;;;;17.46;54.50;96898.97;103521;1282;65133;-45
2023/10/19 15:47:48;;;;;;;4.50;3.50;;;;;;;17.46;54.57;96895.86;103539;1280;73501;-42
2023/10/19 15:50:15;;;;;;;5.80;4.00;;;;;;;17.44;54.56;96889.88;103455;1280;61397;-43
2023/10/19 15:52:44;;;;;;;4.30;3.70;;;;;;;17.44;54.59;96887.39;103530;1279;61390;-43
2023/10/19 15:55:14;;;;;;;5.20;3.50;;;;;;;17.42;54.56;96886.20;103319;1280;75646;-43
2023/10/19 15:57:42;;;;;;;4.60;3.70;;;;;;;17.41;54.47;96888.42;103389;1285;67282;-43
2023/10/19 16:00:13;;;;;;;4.90;3.80;;;;;;;17.39;54.53;96885.85;103342;1279;73576;-43
2023/10/19 16:02:41;;;;;;;5.40;4.30;;;;;;;17.39;54.56;96880.41;103413;1285;61278;-43
2023/10/19 16:05:09;;;;;;;4.20;3.80;;;;;;;17.38;54.54;96881.02;103421;1284;61329;-45
2023/10/19 16:07:36;;;;;;;4.30;3.80;;;;;;;17.36;54.63;96879.75;103358;1280;75661;-45
2023/10/19 16:10:05;;;;;;;8.20;3.90;;;;;;;17.35;54.66;96878.52;103405;1279;67240;-45
2023/10/19 16:12:32;;;;;;;5.40;3.60;;;;;;;17.35;54.70;96878.50;103346;1280;72385;-45
2023/10/19 16:14:59;;;;;;;4.80;3.80;;;;;;;17.34;54.61;96879.80;103429;1283;61678;-45
2023/10/19 16:17:26;;;;;;;6.50;3.80;;;;;;;17.34;54.47;96880.17;103357;1280;61454;-44
2023/10/19 16:19:53;;;;;;;5.30;3.80;;;;;;;17.33;54.66;96875.45;103512;1280;75380;-44
2023/10/19 16:22:21;;;;;;;5.00;3.80;;;;;;;17.31;54.59;96875.88;103473;1280;67103;-44
2023/10/19 16:24:48;;;;;;;4.10;3.40;;;;;;;17.31;54.66;96870.92;103436;1280;72544;-45
2023/10/19 16:27:16;;;;;;;5.30;3.80;;;;;;;17.30;54.58;96870.83;103412;1280;61301;-44
2023/10/19 16:29:43;;;;;;;4.60;3.50;;;;;;;17.29;54.68;96866.64;103359;1279;61389;-44
2023/10/19 16:32:10;;;;;;;5.00;3.70;;;;;;;17.28;54.62;96867.25;103786;1280;75557;-44
2023/10/19 16:34:37;;;;;;;4.70;3.90;;;;;;;17.27;54.58;96865.14;103561;1284;66900;-45
2023/10/19 16:37:04;;;;;;;5.00;3.60;;;;;;;17.26;54.71;96862.27;103610;1280;73790;-43
2023/10/19 16:39:31;;;;;;;5.10;4.10;;;;;;;17.26;54.57;96858.31;103610;1285;61297;-43
2023/10/19 16:41:58;;;;;;;5.70;4.00;;;;;;;17.25;54.63;96863.01;103689;1280;61313;-43
2023/10/19 16:44:25;;;;;;;3.80;3.50;;;;;;;17.24;54.65;96861.83;103649;1285;76037;-43
2023/10/19 16:46:52;;;;;;;5.20;3.80;;;;;;;17.24;54.65;96857.96;103452;1285;67221;-45
2023/10/19 16:49:19;;;;;;;5.20;3.70;;;;;;;17.22;54.58;96858.16;103500;1279;73608;-45
2023/10/19 16:51:46;;;;;;;4.60;3.40;;;;;;;17.21;54.64;96853.91;103587;1285;61312;-42
2023/10/19 16:54:16;;;;;;;4.00;3.60;;;;;;;17.21;54.67;96855.77;103512;1280;61366;-45
2023/10/19 16:56:47;;;;;;;4.30;3.50;;;;;;;17.21;54.71;96851.19;103521;1279;74503;-45
2023/10/19 16:59:15;;;;;;;4.30;3.70;;;;;;;17.20;54.60;96843.89;103533;1284;67063;-43
